createdAt,value
2022-09-23T00:01:09.508Z,99014.00
2022-09-23T00:03:45.626Z,99014.00
2022-09-23T00:06:16.766Z,99002.00
2022-09-23T00:08:46.899Z,99009.00
2022-09-23T00:11:18.603Z,98998.00
2022-09-23T00:13:50.408Z,98998.00
2022-09-23T00:16:22.966Z,98996.00
2022-09-23T00:18:55.464Z,98990.00
2022-09-23T00:21:25.523Z,98990.00
2022-09-23T00:23:55.682Z,98992.00
2022-09-23T00:26:26.137Z,98988.00
2022-09-23T00:28:56.005Z,98981.00
2022-09-23T00:31:27.644Z,98980.00
2022-09-23T00:34:01.857Z,98986.00
2022-09-23T00:36:33.301Z,98979.00
2022-09-23T00:39:04.561Z,98988.00
2022-09-23T00:41:35.655Z,98982.00
2022-09-23T00:44:27.659Z,98984.00
2022-09-23T00:46:57.578Z,98986.00
2022-09-23T00:49:32.834Z,98986.00
2022-09-23T00:52:08.884Z,98988.00
2022-09-23T00:54:38.952Z,98977.00
2022-09-23T00:57:08.932Z,98977.00
2022-09-23T00:59:39.310Z,98973.00
2022-09-23T01:02:10.081Z,98974.00
2022-09-23T01:04:43.248Z,98979.00
2022-09-23T01:07:13.829Z,98960.00
2022-09-23T01:09:43.805Z,98967.00
2022-09-23T01:12:22.830Z,98960.00
2022-09-23T01:14:58.482Z,98959.00
2022-09-23T01:17:36.156Z,98962.00
2022-09-23T01:20:44.949Z,98961.00
2022-09-23T01:23:27.836Z,98961.00
2022-09-23T01:26:22.993Z,98955.00
2022-09-23T01:29:05.516Z,98949.00
2022-09-23T01:31:41.628Z,98956.00
2022-09-23T01:34:15.259Z,98960.00
2022-09-23T01:36:49.315Z,98953.00
2022-09-23T01:39:24.112Z,98953.00
2022-09-23T01:41:58.277Z,98956.00
2022-09-23T01:44:33.462Z,98956.00
2022-09-23T01:47:11.111Z,98948.00
2022-09-23T01:49:47.943Z,98953.00
2022-09-23T01:52:22.054Z,98945.00
2022-09-23T01:54:55.403Z,98945.00
2022-09-23T01:57:28.462Z,98948.00
2022-09-23T02:00:02.225Z,98941.00
2022-09-23T02:02:50.049Z,98938.00
2022-09-23T02:05:24.045Z,98939.00
2022-09-23T02:07:59.541Z,98946.00
2022-09-23T02:10:33.503Z,98936.00
2022-09-23T02:13:07.107Z,98940.00
2022-09-23T02:15:40.338Z,98938.00
2022-09-23T02:18:17.234Z,98933.00
2022-09-23T02:20:47.562Z,98933.00
2022-09-23T02:23:20.866Z,98939.00
2022-09-23T02:25:57.543Z,98942.00
2022-09-23T02:28:34.656Z,98940.00
2022-09-23T02:31:11.976Z,98937.00
2022-09-23T02:33:47.110Z,98942.00
2022-09-23T02:36:21.178Z,98928.00
2022-09-23T02:38:53.264Z,98935.00
2022-09-23T02:41:29.428Z,98936.00
2022-09-23T02:44:02.493Z,98927.00
2022-09-23T02:46:32.825Z,98933.00
2022-09-23T02:49:11.245Z,98936.00
2022-09-23T02:51:41.711Z,98929.00
2022-09-23T02:54:14.750Z,98934.00
2022-09-23T02:56:44.978Z,98935.00
2022-09-23T02:59:19.434Z,98932.00
2022-09-23T03:02:05.587Z,98929.00
2022-09-23T03:04:46.621Z,98930.00
2022-09-23T03:07:20.109Z,98930.00
2022-09-23T03:09:55.918Z,98921.00
2022-09-23T03:12:36.230Z,98919.00
2022-09-23T03:15:17.743Z,98920.00
2022-09-23T03:17:54.741Z,98918.00
2022-09-23T03:20:31.864Z,98914.00
2022-09-23T03:23:04.924Z,98924.00
2022-09-23T03:25:37.243Z,98911.00
2022-09-23T03:28:08.347Z,98901.00
2022-09-23T03:30:38.628Z,98897.00
2022-09-23T03:33:12.190Z,98899.00
2022-09-23T03:36:01.668Z,98908.00
2022-09-23T03:38:35.177Z,98902.00
2022-09-23T03:41:06.250Z,98895.00
2022-09-23T03:43:38.866Z,98904.00
2022-09-23T03:46:10.477Z,98910.00
2022-09-23T03:48:40.856Z,98896.00
2022-09-23T03:51:24.147Z,98901.00
2022-09-23T03:53:54.200Z,98901.00
2022-09-23T03:56:23.999Z,98897.00
2022-09-23T03:58:53.851Z,98897.00
2022-09-23T04:01:23.766Z,98904.00
2022-09-23T04:03:55.490Z,98902.00
2022-09-23T04:06:28.025Z,98900.00
2022-09-23T04:08:58.501Z,98895.00
2022-09-23T04:11:28.341Z,98900.00
2022-09-23T04:13:58.959Z,98897.00
2022-09-23T04:16:29.188Z,98899.00
2022-09-23T04:18:59.130Z,98899.00
2022-09-23T04:21:31.723Z,98903.00
2022-09-23T04:24:01.593Z,98903.00
2022-09-23T04:26:31.433Z,98908.00
2022-09-23T04:29:01.560Z,98904.00
2022-09-23T04:31:31.702Z,98903.00
2022-09-23T04:34:01.893Z,98905.00
2022-09-23T04:36:34.359Z,98909.00
2022-09-23T04:39:04.444Z,98902.00
2022-09-23T04:41:34.400Z,98904.00
2022-09-23T04:44:04.971Z,98908.00
2022-09-23T04:46:34.897Z,98907.00
2022-09-23T04:49:04.733Z,98915.00
2022-09-23T04:51:37.237Z,98906.00
2022-09-23T04:54:07.499Z,98908.00
2022-09-23T04:56:37.406Z,98913.00
2022-09-23T04:59:07.685Z,98912.00
2022-09-23T05:01:38.571Z,98915.00
2022-09-23T05:04:11.148Z,98912.00
2022-09-23T05:06:45.284Z,98913.00
2022-09-23T05:09:19.088Z,98920.00
2022-09-23T05:11:48.944Z,98913.00
2022-09-23T05:14:18.842Z,98918.00
2022-09-23T05:16:48.707Z,98922.00
2022-09-23T05:19:18.528Z,98911.00
2022-09-23T05:21:50.981Z,98917.00
2022-09-23T05:24:24.651Z,98925.00
2022-09-23T05:26:55.984Z,98925.00
2022-09-23T05:29:25.835Z,98918.00
2022-09-23T05:31:55.722Z,98924.00
2022-09-23T05:34:25.624Z,98916.00
2022-09-23T05:36:58.442Z,98928.00
2022-09-23T05:39:28.304Z,98925.00
2022-09-23T05:42:00.299Z,98917.00
2022-09-23T05:44:30.142Z,98919.00
2022-09-23T05:47:00.069Z,98929.00
2022-09-23T05:49:55.271Z,98932.00
2022-09-23T05:52:22.727Z,98932.00
2022-09-23T05:54:52.770Z,98918.00
2022-09-23T05:57:22.592Z,98926.00
2022-09-23T05:59:52.439Z,98913.00
2022-09-23T06:02:22.308Z,98926.00
2022-09-23T06:04:52.150Z,98923.00
2022-09-23T06:07:24.999Z,98909.00
2022-09-23T06:09:55.927Z,98921.00
2022-09-23T06:12:25.773Z,98917.00
2022-09-23T06:14:55.623Z,98925.00
2022-09-23T06:17:25.439Z,98917.00
2022-09-23T06:19:55.303Z,98916.00
2022-09-23T06:22:29.948Z,98923.00
2022-09-23T06:24:59.806Z,98929.00
2022-09-23T06:27:29.627Z,98929.00
2022-09-23T06:29:59.939Z,98936.00
2022-09-23T06:32:29.755Z,98939.00
2022-09-23T06:34:59.697Z,98934.00
2022-09-23T06:37:32.166Z,98933.00
2022-09-23T06:40:02.047Z,98927.00
2022-09-23T06:42:31.858Z,98932.00
2022-09-23T06:45:02.243Z,98940.00
2022-09-23T06:47:32.061Z,98943.00
2022-09-23T06:50:01.873Z,98941.00
2022-09-23T06:52:34.549Z,98946.00
2022-09-23T06:55:04.409Z,98941.00
2022-09-23T06:57:34.723Z,98946.00
2022-09-23T07:00:04.958Z,98937.00
2022-09-23T07:02:34.918Z,98942.00
2022-09-23T07:05:05.307Z,98943.00
2022-09-23T07:07:38.430Z,98949.00
2022-09-23T07:10:09.761Z,98945.00
2022-09-23T07:12:39.829Z,98940.00
2022-09-23T07:15:11.310Z,98949.00
2022-09-23T07:17:43.223Z,98940.00
2022-09-23T07:20:14.178Z,98944.00
2022-09-23T07:22:46.657Z,98936.00
2022-09-23T07:25:16.500Z,98938.00
2022-09-23T07:27:48.291Z,98944.00
2022-09-23T07:30:24.496Z,98941.00
2022-09-23T07:32:55.818Z,98939.00
2022-09-23T07:35:28.238Z,98943.00
2022-09-23T07:38:00.686Z,98942.00
2022-09-23T07:40:30.585Z,98940.00
2022-09-23T07:43:00.937Z,98949.00
2022-09-23T07:45:32.010Z,98936.00
2022-09-23T07:48:01.842Z,98936.00
2022-09-23T07:50:32.411Z,98936.00
2022-09-23T07:53:06.010Z,98936.00
2022-09-23T07:55:35.848Z,98936.00
2022-09-23T07:58:06.128Z,98939.00
2022-09-23T08:00:36.341Z,98940.00
2022-09-23T08:03:06.280Z,98936.00
2022-09-23T08:05:36.629Z,98933.00
2022-09-23T08:08:09.839Z,98930.00
2022-09-23T08:10:39.737Z,98937.00
2022-09-23T08:13:09.949Z,98933.00
2022-09-23T08:15:40.563Z,98936.00
2022-09-23T08:18:10.415Z,98925.00
2022-09-23T08:20:49.146Z,98923.00
2022-09-23T08:23:21.731Z,98926.00
2022-09-23T08:25:51.696Z,98930.00
2022-09-23T08:28:22.130Z,98921.00
2022-09-23T08:30:52.355Z,98922.00
2022-09-23T08:33:23.642Z,98922.00
2022-09-23T08:35:54.150Z,98914.00
2022-09-23T08:38:27.227Z,98919.00
2022-09-23T08:41:07.605Z,98910.00
2022-09-23T08:43:39.752Z,98914.00
2022-09-23T08:46:13.668Z,98908.00
2022-09-23T08:48:46.467Z,98907.00
2022-09-23T08:51:23.069Z,98902.00
2022-09-23T08:53:55.555Z,98902.00
2022-09-23T08:56:26.407Z,98893.00
2022-09-23T08:59:05.338Z,98887.00
2022-09-23T09:01:41.144Z,98888.00
2022-09-23T09:04:18.739Z,98877.00
2022-09-23T09:06:53.961Z,98877.00
2022-09-23T09:09:30.141Z,98882.00
2022-09-23T09:12:04.116Z,98889.00
2022-09-23T09:14:40.850Z,98883.00
2022-09-23T09:17:35.089Z,98883.00
2022-09-23T09:20:11.811Z,98879.00
2022-09-23T09:22:50.939Z,98880.00
2022-09-23T09:25:34.126Z,98888.00
2022-09-23T09:28:04.707Z,98886.00
2022-09-23T09:30:36.357Z,98887.00
2022-09-23T09:33:07.821Z,98891.00
2022-09-23T09:35:40.561Z,98893.00
2022-09-23T09:38:10.465Z,98881.00
2022-09-23T09:40:50.009Z,98899.00
2022-09-23T09:43:23.658Z,98894.00
2022-09-23T09:46:03.163Z,98890.00
2022-09-23T09:48:37.959Z,98887.00
2022-09-23T09:51:21.634Z,98888.00
2022-09-23T09:53:52.730Z,98890.00
2022-09-23T09:56:28.785Z,98892.00
2022-09-23T09:59:01.876Z,98885.00
2022-09-23T10:01:33.731Z,98887.00
2022-09-23T10:04:04.853Z,98890.00
2022-09-23T10:06:37.561Z,98875.00
2022-09-23T10:09:19.804Z,98884.00
2022-09-23T10:12:18.704Z,98870.00
2022-09-23T10:14:50.728Z,98874.00
2022-09-23T10:17:24.273Z,98874.00
2022-09-23T10:20:01.007Z,98875.00
2022-09-23T10:22:34.683Z,98872.00
2022-09-23T10:25:10.026Z,98871.00
2022-09-23T10:27:42.497Z,98869.00
2022-09-23T10:30:24.512Z,98870.00
2022-09-23T10:32:56.016Z,98876.00
2022-09-23T10:35:28.370Z,98874.00
2022-09-23T10:37:59.379Z,98876.00
2022-09-23T10:40:46.350Z,98869.00
2022-09-23T10:43:41.118Z,98880.00
2022-09-23T10:46:26.158Z,98864.00
2022-09-23T10:49:09.095Z,98870.00
2022-09-23T10:51:45.999Z,98865.00
2022-09-23T10:54:22.717Z,98869.00
2022-09-23T10:57:01.684Z,98854.00
2022-09-23T10:59:43.631Z,98862.00
2022-09-23T11:02:28.419Z,98860.00
2022-09-23T11:05:18.263Z,98863.00
2022-09-23T11:07:53.937Z,98854.00
2022-09-23T11:10:53.085Z,98849.00
2022-09-23T11:13:34.643Z,98843.00
2022-09-23T11:16:13.292Z,98845.00
2022-09-23T11:19:05.287Z,98830.00
2022-09-23T11:21:44.985Z,98836.00
2022-09-23T11:24:50.390Z,98833.00
2022-09-23T11:27:29.540Z,98832.00
2022-09-23T11:30:03.656Z,98832.00
2022-09-23T11:32:51.170Z,98828.00
2022-09-23T11:35:23.535Z,98822.00
2022-09-23T11:37:55.496Z,98818.00
2022-09-23T11:40:30.360Z,98812.00
2022-09-23T11:43:04.304Z,98813.00
2022-09-23T11:45:36.058Z,98805.00
2022-09-23T11:48:12.585Z,98804.00
2022-09-23T11:50:48.625Z,98802.00
2022-09-23T11:53:23.237Z,98803.00
2022-09-23T11:55:58.205Z,98793.00
2022-09-23T11:58:32.647Z,98782.00
2022-09-23T12:01:07.244Z,98771.00
2022-09-23T12:03:47.358Z,98768.00
2022-09-23T12:06:20.348Z,98770.00
2022-09-23T12:08:53.149Z,98771.00
2022-09-23T12:11:29.943Z,98773.00
2022-09-23T12:14:08.374Z,98759.00
2022-09-23T12:16:58.204Z,98759.00
2022-09-23T12:19:47.161Z,98760.00
2022-09-23T12:22:27.232Z,98783.00
2022-09-23T12:25:01.054Z,98780.00
2022-09-23T12:27:36.993Z,98774.00
2022-09-23T12:30:08.639Z,98767.00
2022-09-23T12:32:38.571Z,98769.00
2022-09-23T12:35:24.433Z,98766.00
2022-09-23T12:37:54.869Z,98761.00
2022-09-23T12:40:28.571Z,98747.00
2022-09-23T12:42:59.361Z,98762.00
2022-09-23T12:45:40.219Z,98749.00
2022-09-23T12:48:45.320Z,98746.00
2022-09-23T12:51:23.256Z,98746.00
2022-09-23T12:54:26.750Z,98739.00
2022-09-23T12:57:04.020Z,98738.00
2022-09-23T12:59:50.077Z,98751.00
2022-09-23T13:02:27.889Z,98741.00
2022-09-23T13:05:14.532Z,98736.00
2022-09-23T13:07:49.194Z,98745.00
2022-09-23T13:10:21.923Z,98743.00
2022-09-23T13:12:52.707Z,98732.00
2022-09-23T13:15:30.482Z,98730.00
2022-09-23T13:18:28.231Z,98718.00
2022-09-23T13:20:58.484Z,98727.00
2022-09-23T13:23:31.989Z,98729.00
2022-09-23T13:26:03.716Z,98720.00
2022-09-23T13:28:37.819Z,98718.00
2022-09-23T13:31:09.534Z,98719.00
2022-09-23T13:33:45.948Z,98721.00
2022-09-23T13:36:17.319Z,98713.00
2022-09-23T13:38:50.202Z,98705.00
2022-09-23T13:41:22.523Z,98707.00
2022-09-23T13:43:53.664Z,98689.00
2022-09-23T13:46:25.019Z,98702.00
2022-09-23T13:48:57.058Z,98696.00
2022-09-23T13:51:30.560Z,98684.00
2022-09-23T13:54:05.479Z,98685.00
2022-09-23T13:56:37.926Z,98689.00
2022-09-23T13:59:21.721Z,98678.00
2022-09-23T14:01:51.781Z,98675.00
2022-09-23T14:04:29.038Z,98677.00
2022-09-23T14:06:59.063Z,98673.00
2022-09-23T14:09:32.548Z,98668.00
2022-09-23T14:12:03.407Z,98673.00
2022-09-23T14:14:33.823Z,98679.00
2022-09-23T14:17:03.675Z,98665.00
2022-09-23T14:19:34.780Z,98665.00
2022-09-23T14:22:06.338Z,98666.00
2022-09-23T14:24:41.826Z,98674.00
2022-09-23T14:27:16.781Z,98680.00
2022-09-23T14:29:48.169Z,98671.00
2022-09-23T14:32:21.295Z,98668.00
2022-09-23T14:34:54.995Z,98668.00
2022-09-23T14:37:43.404Z,98671.00
2022-09-23T14:40:19.115Z,98668.00
2022-09-23T14:42:51.531Z,98667.00
2022-09-23T14:45:23.747Z,98662.00
2022-09-23T14:47:55.644Z,98665.00
2022-09-23T14:50:47.622Z,98658.00
2022-09-23T14:53:45.804Z,98662.00
2022-09-23T14:56:25.559Z,98656.00
2022-09-23T14:58:57.382Z,98660.00
2022-09-23T15:01:36.625Z,98662.00
2022-09-23T15:04:35.523Z,98651.00
2022-09-23T15:07:09.178Z,98660.00
2022-09-23T15:09:41.179Z,98653.00
2022-09-23T15:12:17.054Z,98646.00
2022-09-23T15:14:49.215Z,98647.00
2022-09-23T15:17:32.714Z,98636.00
2022-09-23T15:20:06.550Z,98648.00
2022-09-23T15:22:45.893Z,98644.00
2022-09-23T15:25:21.636Z,98645.00
2022-09-23T15:28:05.973Z,98639.00
2022-09-23T15:30:38.328Z,98640.00
2022-09-23T15:33:09.633Z,98638.00
2022-09-23T15:35:39.608Z,98637.00
2022-09-23T15:38:09.465Z,98641.00
2022-09-23T15:40:40.527Z,98638.00
2022-09-23T15:43:20.903Z,98643.00
2022-09-23T15:45:53.439Z,98635.00
2022-09-23T15:48:26.263Z,98638.00
2022-09-23T15:50:57.777Z,98635.00
2022-09-23T15:53:30.046Z,98634.00
2022-09-23T15:56:00.225Z,98640.00
2022-09-23T15:58:32.983Z,98636.00
2022-09-23T16:01:03.742Z,98635.00
2022-09-23T16:03:33.739Z,98637.00
2022-09-23T16:06:06.326Z,98644.00
2022-09-23T16:08:36.150Z,98643.00
2022-09-23T16:11:06.273Z,98644.00
2022-09-23T16:13:38.725Z,98637.00
2022-09-23T16:16:08.913Z,98640.00
2022-09-23T16:18:42.190Z,98640.00
2022-09-23T16:21:13.298Z,98646.00
2022-09-23T16:23:47.416Z,98637.00
2022-09-23T16:26:20.658Z,98650.00
2022-09-23T16:28:55.227Z,98646.00
2022-09-23T16:31:26.887Z,98644.00
2022-09-23T16:33:56.971Z,98641.00
2022-09-23T16:36:29.012Z,98650.00
2022-09-23T16:38:59.408Z,98642.00
2022-09-23T16:41:31.670Z,98643.00
2022-09-23T16:44:06.354Z,98646.00
2022-09-23T16:46:36.781Z,98643.00
2022-09-23T16:49:07.019Z,98640.00
2022-09-23T16:51:38.956Z,98630.00
2022-09-23T16:54:12.094Z,98634.00
2022-09-23T16:56:44.504Z,98636.00
2022-09-23T16:59:18.249Z,98637.00
2022-09-23T17:02:00.909Z,98634.00
2022-09-23T17:04:31.732Z,98633.00
2022-09-23T17:07:02.102Z,98629.00
2022-09-23T17:09:32.351Z,98633.00
2022-09-23T17:12:07.925Z,98621.00
2022-09-23T17:14:40.728Z,98621.00
2022-09-23T17:17:10.923Z,98626.00
2022-09-23T17:19:41.578Z,98624.00
2022-09-23T17:22:12.210Z,98620.00
2022-09-23T17:24:42.952Z,98622.00
2022-09-23T17:27:17.331Z,98613.00
2022-09-23T17:29:50.195Z,98624.00
2022-09-23T17:32:21.157Z,98620.00
2022-09-23T17:34:51.401Z,98624.00
2022-09-23T17:37:21.977Z,98620.00
2022-09-23T17:39:52.235Z,98621.00
2022-09-23T17:42:22.800Z,98609.00
2022-09-23T17:44:56.420Z,98614.00
2022-09-23T17:47:27.188Z,98607.00
2022-09-23T17:49:59.018Z,98602.00
2022-09-23T17:52:29.261Z,98609.00
2022-09-23T17:54:59.452Z,98610.00
2022-09-23T17:57:29.657Z,98605.00
2022-09-23T18:00:02.499Z,98604.00
2022-09-23T18:02:42.010Z,98606.00
2022-09-23T18:05:13.142Z,98611.00
2022-09-23T18:07:43.414Z,98606.00
2022-09-23T18:10:14.873Z,98604.00
2022-09-23T18:12:45.149Z,98599.00
2022-09-23T18:15:20.173Z,98610.00
2022-09-23T18:17:50.605Z,98608.00
2022-09-23T18:20:20.855Z,98604.00
2022-09-23T18:22:51.107Z,98598.00
2022-09-23T18:25:38.120Z,98608.00
2022-09-23T18:28:09.317Z,98608.00
2022-09-23T18:30:42.550Z,98594.00
2022-09-23T18:33:15.461Z,98599.00
2022-09-23T18:35:45.758Z,98596.00
2022-09-23T18:38:16.103Z,98603.00
2022-09-23T18:40:57.100Z,98594.00
2022-09-23T18:43:33.790Z,98589.00
2022-09-23T18:46:10.915Z,98599.00
2022-09-23T18:48:53.597Z,98596.00
2022-09-23T18:51:26.141Z,98592.00
2022-09-23T18:53:57.983Z,98600.00
2022-09-23T18:56:29.762Z,98595.00
2022-09-23T18:59:00.018Z,98602.00
2022-09-23T19:01:33.035Z,98593.00
2022-09-23T19:04:06.888Z,98596.00
2022-09-23T19:06:37.762Z,98578.00
2022-09-23T19:09:08.812Z,98586.00
2022-09-23T19:11:39.335Z,98589.00
2022-09-23T19:14:11.951Z,98591.00
2022-09-23T19:16:44.931Z,98597.00
2022-09-23T19:19:15.522Z,98590.00
2022-09-23T19:21:45.784Z,98593.00
2022-09-23T19:24:20.205Z,98587.00
2022-09-23T19:26:50.666Z,98577.00
2022-09-23T19:29:25.978Z,98587.00
2022-09-23T19:31:59.750Z,98575.00
2022-09-23T19:34:31.022Z,98576.00
2022-09-23T19:37:01.645Z,98574.00
2022-09-23T19:39:32.240Z,98578.00
2022-09-23T19:42:02.507Z,98572.00
2022-09-23T19:44:32.747Z,98562.00
2022-09-23T19:47:06.113Z,98570.00
2022-09-23T19:49:36.556Z,98580.00
2022-09-23T19:52:06.822Z,98568.00
2022-09-23T19:54:37.405Z,98570.00
2022-09-23T19:57:07.643Z,98572.00
2022-09-23T19:59:38.732Z,98571.00
2022-09-23T20:02:12.385Z,98571.00
2022-09-23T20:04:42.583Z,98564.00
2022-09-23T20:07:12.794Z,98562.00
2022-09-23T20:09:42.911Z,98572.00
2022-09-23T20:12:13.096Z,98560.00
2022-09-23T20:14:43.801Z,98560.00
2022-09-23T20:17:17.549Z,98563.00
2022-09-23T20:19:47.580Z,98562.00
2022-09-23T20:22:33.246Z,98552.00
2022-09-23T20:25:04.037Z,98555.00
2022-09-23T20:27:31.809Z,98562.00
2022-09-23T20:30:02.832Z,98560.00
2022-09-23T20:32:36.843Z,98548.00
2022-09-23T20:35:08.146Z,98553.00
2022-09-23T20:37:38.144Z,98552.00
2022-09-23T20:40:10.361Z,98552.00
2022-09-23T20:42:40.233Z,98549.00
2022-09-23T20:45:11.416Z,98555.00
2022-09-23T20:47:44.195Z,98555.00
2022-09-23T20:50:14.149Z,98552.00
2022-09-23T20:52:43.967Z,98549.00
2022-09-23T20:55:13.820Z,98551.00
2022-09-23T20:57:45.309Z,98548.00
2022-09-23T21:00:18.388Z,98539.00
2022-09-23T21:02:54.987Z,98544.00
2022-09-23T21:05:24.858Z,98537.00
2022-09-23T21:07:54.703Z,98539.00
2022-09-23T21:10:24.537Z,98539.00
2022-09-23T21:12:54.500Z,98546.00
2022-09-23T21:15:26.110Z,98540.00
2022-09-23T21:17:58.549Z,98548.00
2022-09-23T21:20:28.391Z,98553.00
2022-09-23T21:22:58.643Z,98537.00
2022-09-23T21:25:29.519Z,98540.00
2022-09-23T21:28:02.173Z,98545.00
2022-09-23T21:30:32.234Z,98537.00
2022-09-23T21:33:06.206Z,98535.00
2022-09-23T21:35:36.061Z,98540.00
2022-09-23T21:38:07.189Z,98550.00
2022-09-23T21:40:49.477Z,98549.00
2022-09-23T21:43:20.136Z,98548.00
2022-09-23T21:45:51.109Z,98539.00
2022-09-23T21:48:24.419Z,98538.00
2022-09-23T21:50:58.058Z,98542.00
2022-09-23T21:53:28.780Z,98540.00
2022-09-23T21:56:04.264Z,98540.00
2022-09-23T21:58:34.620Z,98530.00
2022-09-23T22:01:05.238Z,98525.00
2022-09-23T22:03:37.934Z,98522.00
2022-09-23T22:06:09.808Z,98528.00
2022-09-23T22:08:42.415Z,98524.00
2022-09-23T22:11:35.133Z,98521.00
2022-09-23T22:14:07.538Z,98528.00
2022-09-23T22:16:37.668Z,98528.00
2022-09-23T22:19:10.934Z,98538.00
2022-09-23T22:21:41.847Z,98524.00
2022-09-23T22:24:12.866Z,98519.00
2022-09-23T22:26:44.085Z,98523.00
2022-09-23T22:29:27.862Z,98524.00
2022-09-23T22:32:10.319Z,98523.00
2022-09-23T22:34:51.578Z,98531.00
2022-09-23T22:37:23.902Z,98527.00
2022-09-23T22:39:53.779Z,98526.00
2022-09-23T22:42:24.207Z,98525.00
2022-09-23T22:44:55.631Z,98520.00
2022-09-23T22:47:25.737Z,98516.00
2022-09-23T22:49:58.203Z,98516.00
2022-09-23T22:52:28.080Z,98507.00
2022-09-23T22:54:57.900Z,98506.00
2022-09-23T22:57:28.112Z,98502.00
2022-09-23T22:59:57.931Z,98493.00
2022-09-23T23:02:27.839Z,98501.00
2022-09-23T23:05:00.551Z,98500.00
2022-09-23T23:07:30.405Z,98504.00
2022-09-23T23:10:00.269Z,98489.00
2022-09-23T23:12:30.180Z,98485.00
2022-09-23T23:14:59.997Z,98489.00
2022-09-23T23:17:29.975Z,98486.00
2022-09-23T23:20:02.474Z,98485.00
2022-09-23T23:22:32.308Z,98484.00
2022-09-23T23:25:02.286Z,98481.00
2022-09-23T23:27:32.125Z,98481.00
2022-09-23T23:30:02.006Z,98465.00
2022-09-23T23:32:32.537Z,98470.00
2022-09-23T23:35:04.970Z,98466.00
2022-09-23T23:37:34.805Z,98475.00
2022-09-23T23:40:05.194Z,98470.00
2022-09-23T23:42:35.224Z,98470.00
2022-09-23T23:45:05.054Z,98471.00
2022-09-23T23:47:36.044Z,98459.00
2022-09-23T23:50:09.899Z,98466.00
2022-09-23T23:52:39.867Z,98465.00
2022-09-23T23:55:10.348Z,98460.00
2022-09-23T23:57:40.224Z,98462.00
